Urupes, Brazil
Current Conditions -  °F | °C
As of 7:00 PM on Saturday 20 Dec 2014 (Local Time) from SBBU Reporting Station
Scattered Clouds Scattered Clouds  
Wind Chill: 88°   Ceiling: Unl
Heat Index: 98°   Visibility: 6mi
Dew Point: 75°   Wind: 9mph
Humidity: 66%   Direction: 40°NE
Pressure: 29.8"   Gusts: NA
Location:  21.21°S, 49.29°W
Report Text: SBBU 202100Z 04008KT 9999 SCT035 FEW045TCU SCT075 31/24 Q1009
Loading
Personal Weather Stations






























Interactive Weather Map New forecast layout! Learn more

10-Day Weather Forecast

Advertisements
Track Severe Weather on mobile